sensor_id;sensor_type;location;lat;lon;timestamp;P1;durP1;ratioP1;P2;durP2;ratioP2
26908;SDS011;14477;51.038;4.588;2022-08-19T00:01:25;4.93;;;3.30;;
26908;SDS011;14477;51.038;4.588;2022-08-19T00:03:52;4.03;;;3.15;;
26908;SDS011;14477;51.038;4.588;2022-08-19T00:06:18;4.10;;;3.03;;
26908;SDS011;14477;51.038;4.588;2022-08-19T00:08:44;4.25;;;3.17;;
26908;SDS011;14477;51.038;4.588;2022-08-19T00:11:10;4.10;;;3.03;;
26908;SDS011;14477;51.038;4.588;2022-08-19T00:13:36;3.75;;;3.00;;
26908;SDS011;14477;51.038;4.588;2022-08-19T00:16:03;4.43;;;3.25;;
26908;SDS011;14477;51.038;4.588;2022-08-19T00:18:31;4.25;;;3.35;;
26908;SDS011;14477;51.038;4.588;2022-08-19T00:20:58;4.57;;;3.10;;
26908;SDS011;14477;51.038;4.588;2022-08-19T00:23:25;4.10;;;2.95;;
26908;SDS011;14477;51.038;4.588;2022-08-19T00:25:51;4.65;;;3.13;;
26908;SDS011;14477;51.038;4.588;2022-08-19T00:28:17;4.05;;;3.00;;
26908;SDS011;14477;51.038;4.588;2022-08-19T00:30:43;4.72;;;3.50;;
26908;SDS011;14477;51.038;4.588;2022-08-19T00:33:09;5.17;;;3.40;;
26908;SDS011;14477;51.038;4.588;2022-08-19T00:35:35;4.90;;;3.38;;
26908;SDS011;14477;51.038;4.588;2022-08-19T00:38:03;4.90;;;3.38;;
26908;SDS011;14477;51.038;4.588;2022-08-19T00:40:31;4.32;;;3.30;;
26908;SDS011;14477;51.038;4.588;2022-08-19T00:42:57;4.70;;;3.03;;
26908;SDS011;14477;51.038;4.588;2022-08-19T00:45:24;5.28;;;3.50;;
26908;SDS011;14477;51.038;4.588;2022-08-19T00:47:51;4.32;;;3.30;;
26908;SDS011;14477;51.038;4.588;2022-08-19T00:50:18;5.22;;;3.22;;
26908;SDS011;14477;51.038;4.588;2022-08-19T00:52:47;3.90;;;2.97;;
26908;SDS011;14477;51.038;4.588;2022-08-19T00:55:18;4.05;;;3.25;;
26908;SDS011;14477;51.038;4.588;2022-08-19T00:57:48;4.18;;;3.03;;
26908;SDS011;14477;51.038;4.588;2022-08-19T01:00:23;4.60;;;3.25;;
26908;SDS011;14477;51.038;4.588;2022-08-19T01:02:51;4.78;;;3.40;;
26908;SDS011;14477;51.038;4.588;2022-08-19T01:05:20;5.90;;;3.70;;
26908;SDS011;14477;51.038;4.588;2022-08-19T01:07:49;5.32;;;3.60;;
26908;SDS011;14477;51.038;4.588;2022-08-19T01:10:17;5.97;;;3.42;;
26908;SDS011;14477;51.038;4.588;2022-08-19T01:12:46;5.32;;;3.70;;
26908;SDS011;14477;51.038;4.588;2022-08-19T01:15:14;5.32;;;3.72;;
26908;SDS011;14477;51.038;4.588;2022-08-19T01:17:42;5.70;;;3.87;;
26908;SDS011;14477;51.038;4.588;2022-08-19T01:20:11;5.25;;;3.88;;
26908;SDS011;14477;51.038;4.588;2022-08-19T01:22:49;5.72;;;3.95;;
26908;SDS011;14477;51.038;4.588;2022-08-19T01:25:20;5.88;;;3.88;;
26908;SDS011;14477;51.038;4.588;2022-08-19T01:27:50;6.60;;;3.97;;
26908;SDS011;14477;51.038;4.588;2022-08-19T01:30:18;7.47;;;4.10;;
26908;SDS011;14477;51.038;4.588;2022-08-19T01:32:50;5.90;;;3.92;;
26908;SDS011;14477;51.038;4.588;2022-08-19T01:35:17;6.18;;;3.80;;
26908;SDS011;14477;51.038;4.588;2022-08-19T01:37:45;5.53;;;3.90;;
26908;SDS011;14477;51.038;4.588;2022-08-19T01:40:21;7.35;;;3.92;;
26908;SDS011;14477;51.038;4.588;2022-08-19T01:42:49;5.60;;;3.83;;
26908;SDS011;14477;51.038;4.588;2022-08-19T01:45:17;6.68;;;4.57;;
26908;SDS011;14477;51.038;4.588;2022-08-19T01:47:44;9.45;;;5.35;;
26908;SDS011;14477;51.038;4.588;2022-08-19T01:50:11;10.55;;;5.72;;
26908;SDS011;14477;51.038;4.588;2022-08-19T01:52:38;11.57;;;6.43;;
26908;SDS011;14477;51.038;4.588;2022-08-19T01:55:07;13.07;;;6.80;;
26908;SDS011;14477;51.038;4.588;2022-08-19T01:57:35;12.65;;;7.07;;
26908;SDS011;14477;51.038;4.588;2022-08-19T02:00:04;11.52;;;6.47;;
26908;SDS011;14477;51.038;4.588;2022-08-19T02:02:33;13.75;;;7.13;;
26908;SDS011;14477;51.038;4.588;2022-08-19T02:04:59;13.93;;;7.70;;
26908;SDS011;14477;51.038;4.588;2022-08-19T02:07:24;14.47;;;7.70;;
26908;SDS011;14477;51.038;4.588;2022-08-19T02:09:50;14.77;;;7.80;;
26908;SDS011;14477;51.038;4.588;2022-08-19T02:12:16;14.25;;;7.45;;
26908;SDS011;14477;51.038;4.588;2022-08-19T02:14:42;16.35;;;8.40;;
26908;SDS011;14477;51.038;4.588;2022-08-19T02:17:08;15.00;;;7.50;;
26908;SDS011;14477;51.038;4.588;2022-08-19T02:19:34;14.25;;;7.72;;
26908;SDS011;14477;51.038;4.588;2022-08-19T02:22:00;14.70;;;8.05;;
26908;SDS011;14477;51.038;4.588;2022-08-19T02:24:26;15.37;;;7.50;;
26908;SDS011;14477;51.038;4.588;2022-08-19T02:26:52;14.48;;;7.45;;
26908;SDS011;14477;51.038;4.588;2022-08-19T02:29:18;14.38;;;7.90;;
26908;SDS011;14477;51.038;4.588;2022-08-19T02:31:44;14.95;;;8.07;;
26908;SDS011;14477;51.038;4.588;2022-08-19T02:34:10;16.77;;;8.83;;
26908;SDS011;14477;51.038;4.588;2022-08-19T02:36:36;15.05;;;8.30;;
26908;SDS011;14477;51.038;4.588;2022-08-19T02:39:02;17.83;;;8.50;;
26908;SDS011;14477;51.038;4.588;2022-08-19T02:41:29;16.30;;;8.35;;
26908;SDS011;14477;51.038;4.588;2022-08-19T02:43:58;15.43;;;8.50;;
26908;SDS011;14477;51.038;4.588;2022-08-19T02:46:26;14.05;;;7.82;;
26908;SDS011;14477;51.038;4.588;2022-08-19T02:48:55;16.92;;;8.35;;
26908;SDS011;14477;51.038;4.588;2022-08-19T02:51:25;16.90;;;8.60;;
26908;SDS011;14477;51.038;4.588;2022-08-19T02:53:59;16.27;;;8.10;;
26908;SDS011;14477;51.038;4.588;2022-08-19T02:56:25;16.73;;;8.30;;
26908;SDS011;14477;51.038;4.588;2022-08-19T02:58:53;16.02;;;8.48;;
26908;SDS011;14477;51.038;4.588;2022-08-19T03:01:21;14.60;;;7.93;;
26908;SDS011;14477;51.038;4.588;2022-08-19T03:03:52;15.77;;;7.93;;
26908;SDS011;14477;51.038;4.588;2022-08-19T03:06:18;14.50;;;7.85;;
26908;SDS011;14477;51.038;4.588;2022-08-19T03:08:45;14.80;;;8.17;;
26908;SDS011;14477;51.038;4.588;2022-08-19T03:11:23;15.32;;;7.97;;
26908;SDS011;14477;51.038;4.588;2022-08-19T03:13:51;15.88;;;7.88;;
26908;SDS011;14477;51.038;4.588;2022-08-19T03:16:18;14.95;;;7.70;;
26908;SDS011;14477;51.038;4.588;2022-08-19T03:18:49;15.45;;;7.70;;
26908;SDS011;14477;51.038;4.588;2022-08-19T03:21:20;14.63;;;7.60;;
26908;SDS011;14477;51.038;4.588;2022-08-19T03:23:53;14.05;;;7.53;;
26908;SDS011;14477;51.038;4.588;2022-08-19T03:26:20;13.90;;;7.65;;
26908;SDS011;14477;51.038;4.588;2022-08-19T03:28:46;13.82;;;7.57;;
26908;SDS011;14477;51.038;4.588;2022-08-19T03:31:15;14.70;;;7.32;;
26908;SDS011;14477;51.038;4.588;2022-08-19T03:33:47;14.77;;;7.50;;
26908;SDS011;14477;51.038;4.588;2022-08-19T03:36:18;13.50;;;7.63;;
26908;SDS011;14477;51.038;4.588;2022-08-19T03:38:49;13.38;;;7.13;;
26908;SDS011;14477;51.038;4.588;2022-08-19T03:41:22;14.38;;;6.80;;
26908;SDS011;14477;51.038;4.588;2022-08-19T03:43:51;15.32;;;7.75;;
26908;SDS011;14477;51.038;4.588;2022-08-19T03:46:19;14.13;;;7.83;;
26908;SDS011;14477;51.038;4.588;2022-08-19T03:48:47;13.30;;;7.55;;
26908;SDS011;14477;51.038;4.588;2022-08-19T03:51:32;14.65;;;7.85;;
26908;SDS011;14477;51.038;4.588;2022-08-19T03:54:01;14.45;;;7.38;;
26908;SDS011;14477;51.038;4.588;2022-08-19T03:56:29;16.00;;;7.63;;
26908;SDS011;14477;51.038;4.588;2022-08-19T03:58:55;14.20;;;7.63;;
26908;SDS011;14477;51.038;4.588;2022-08-19T04:01:23;12.98;;;7.15;;
26908;SDS011;14477;51.038;4.588;2022-08-19T04:03:55;14.07;;;7.22;;
26908;SDS011;14477;51.038;4.588;2022-08-19T04:06:25;13.15;;;6.45;;
26908;SDS011;14477;51.038;4.588;2022-08-19T04:08:57;15.47;;;6.90;;
26908;SDS011;14477;51.038;4.588;2022-08-19T04:11:26;13.57;;;7.18;;
26908;SDS011;14477;51.038;4.588;2022-08-19T04:13:54;13.80;;;7.40;;
26908;SDS011;14477;51.038;4.588;2022-08-19T04:16:21;13.48;;;7.13;;
26908;SDS011;14477;51.038;4.588;2022-08-19T04:18:50;13.18;;;7.20;;
26908;SDS011;14477;51.038;4.588;2022-08-19T04:21:20;12.33;;;6.87;;
26908;SDS011;14477;51.038;4.588;2022-08-19T04:23:50;11.90;;;6.80;;
26908;SDS011;14477;51.038;4.588;2022-08-19T04:26:17;12.90;;;7.07;;
26908;SDS011;14477;51.038;4.588;2022-08-19T04:28:45;12.60;;;6.60;;
26908;SDS011;14477;51.038;4.588;2022-08-19T04:31:15;12.80;;;6.72;;
26908;SDS011;14477;51.038;4.588;2022-08-19T04:33:43;11.13;;;6.07;;
26908;SDS011;14477;51.038;4.588;2022-08-19T04:36:15;11.43;;;6.57;;
26908;SDS011;14477;51.038;4.588;2022-08-19T04:38:56;9.85;;;5.57;;
26908;SDS011;14477;51.038;4.588;2022-08-19T04:41:23;11.02;;;6.20;;
26908;SDS011;14477;51.038;4.588;2022-08-19T04:44:08;10.55;;;5.75;;
26908;SDS011;14477;51.038;4.588;2022-08-19T04:46:34;10.90;;;5.63;;
26908;SDS011;14477;51.038;4.588;2022-08-19T04:49:01;12.57;;;5.65;;
26908;SDS011;14477;51.038;4.588;2022-08-19T04:51:30;11.65;;;5.68;;
26908;SDS011;14477;51.038;4.588;2022-08-19T04:53:57;10.23;;;5.40;;
26908;SDS011;14477;51.038;4.588;2022-08-19T04:56:25;10.57;;;5.72;;
26908;SDS011;14477;51.038;4.588;2022-08-19T04:58:52;10.67;;;5.30;;
26908;SDS011;14477;51.038;4.588;2022-08-19T05:01:19;11.07;;;5.72;;
26908;SDS011;14477;51.038;4.588;2022-08-19T05:03:47;9.90;;;5.35;;
26908;SDS011;14477;51.038;4.588;2022-08-19T05:06:13;11.60;;;5.55;;
26908;SDS011;14477;51.038;4.588;2022-08-19T05:08:42;10.15;;;5.70;;
26908;SDS011;14477;51.038;4.588;2022-08-19T05:11:13;10.70;;;5.80;;
26908;SDS011;14477;51.038;4.588;2022-08-19T05:13:41;10.88;;;5.40;;
26908;SDS011;14477;51.038;4.588;2022-08-19T05:16:09;11.90;;;6.03;;
26908;SDS011;14477;51.038;4.588;2022-08-19T05:18:36;9.60;;;5.38;;
26908;SDS011;14477;51.038;4.588;2022-08-19T05:21:20;9.70;;;5.22;;
26908;SDS011;14477;51.038;4.588;2022-08-19T05:24:05;10.23;;;5.07;;
26908;SDS011;14477;51.038;4.588;2022-08-19T05:26:44;10.35;;;5.80;;
26908;SDS011;14477;51.038;4.588;2022-08-19T05:29:17;11.93;;;5.38;;
26908;SDS011;14477;51.038;4.588;2022-08-19T05:31:45;10.77;;;5.45;;
26908;SDS011;14477;51.038;4.588;2022-08-19T05:34:14;9.35;;;5.18;;
26908;SDS011;14477;51.038;4.588;2022-08-19T05:36:41;9.23;;;5.40;;
26908;SDS011;14477;51.038;4.588;2022-08-19T05:39:11;9.85;;;4.85;;
26908;SDS011;14477;51.038;4.588;2022-08-19T05:41:46;9.50;;;5.10;;
26908;SDS011;14477;51.038;4.588;2022-08-19T05:44:14;8.70;;;4.55;;
26908;SDS011;14477;51.038;4.588;2022-08-19T05:46:44;8.43;;;4.82;;
26908;SDS011;14477;51.038;4.588;2022-08-19T05:49:14;9.63;;;4.93;;
26908;SDS011;14477;51.038;4.588;2022-08-19T05:51:41;9.93;;;4.60;;
26908;SDS011;14477;51.038;4.588;2022-08-19T05:54:07;8.80;;;4.55;;
26908;SDS011;14477;51.038;4.588;2022-08-19T05:56:34;8.25;;;4.20;;
26908;SDS011;14477;51.038;4.588;2022-08-19T05:59:03;8.80;;;4.25;;
26908;SDS011;14477;51.038;4.588;2022-08-19T06:01:36;7.57;;;4.50;;
26908;SDS011;14477;51.038;4.588;2022-08-19T06:04:03;7.85;;;3.95;;
26908;SDS011;14477;51.038;4.588;2022-08-19T06:06:29;7.68;;;3.90;;
26908;SDS011;14477;51.038;4.588;2022-08-19T06:08:54;7.10;;;4.00;;
26908;SDS011;14477;51.038;4.588;2022-08-19T06:11:21;7.97;;;4.20;;
26908;SDS011;14477;51.038;4.588;2022-08-19T06:13:48;6.63;;;3.78;;
26908;SDS011;14477;51.038;4.588;2022-08-19T06:16:21;6.40;;;3.70;;
26908;SDS011;14477;51.038;4.588;2022-08-19T06:18:53;7.70;;;3.53;;
26908;SDS011;14477;51.038;4.588;2022-08-19T06:21:21;5.97;;;3.25;;
26908;SDS011;14477;51.038;4.588;2022-08-19T06:23:48;6.53;;;3.25;;
26908;SDS011;14477;51.038;4.588;2022-08-19T06:26:16;5.68;;;3.40;;
26908;SDS011;14477;51.038;4.588;2022-08-19T06:28:43;6.20;;;3.20;;
26908;SDS011;14477;51.038;4.588;2022-08-19T06:31:15;4.97;;;2.65;;
26908;SDS011;14477;51.038;4.588;2022-08-19T06:33:43;6.32;;;3.30;;
26908;SDS011;14477;51.038;4.588;2022-08-19T06:38:59;7.05;;;3.15;;
26908;SDS011;14477;51.038;4.588;2022-08-19T06:41:26;4.87;;;2.80;;
26908;SDS011;14477;51.038;4.588;2022-08-19T06:43:53;4.22;;;2.60;;
26908;SDS011;14477;51.038;4.588;2022-08-19T06:46:19;4.57;;;2.83;;
26908;SDS011;14477;51.038;4.588;2022-08-19T06:48:46;5.30;;;2.80;;
26908;SDS011;14477;51.038;4.588;2022-08-19T06:51:15;4.55;;;2.80;;
26908;SDS011;14477;51.038;4.588;2022-08-19T06:53:46;6.47;;;3.03;;
26908;SDS011;14477;51.038;4.588;2022-08-19T06:56:16;6.57;;;2.85;;
26908;SDS011;14477;51.038;4.588;2022-08-19T06:58:43;4.82;;;2.97;;
26908;SDS011;14477;51.038;4.588;2022-08-19T07:01:09;6.90;;;2.90;;
26908;SDS011;14477;51.038;4.588;2022-08-19T07:03:36;4.43;;;2.57;;
26908;SDS011;14477;51.038;4.588;2022-08-19T07:06:09;5.40;;;2.97;;
26908;SDS011;14477;51.038;4.588;2022-08-19T07:08:37;6.88;;;3.05;;
26908;SDS011;14477;51.038;4.588;2022-08-19T07:11:09;4.97;;;3.08;;
26908;SDS011;14477;51.038;4.588;2022-08-19T07:13:38;5.38;;;2.90;;
26908;SDS011;14477;51.038;4.588;2022-08-19T07:16:08;5.13;;;2.63;;
26908;SDS011;14477;51.038;4.588;2022-08-19T07:18:37;5.05;;;3.00;;
26908;SDS011;14477;51.038;4.588;2022-08-19T07:21:08;5.10;;;2.85;;
26908;SDS011;14477;51.038;4.588;2022-08-19T07:23:39;4.78;;;2.85;;
26908;SDS011;14477;51.038;4.588;2022-08-19T07:26:06;5.78;;;3.03;;
26908;SDS011;14477;51.038;4.588;2022-08-19T07:28:45;6.23;;;2.80;;
26908;SDS011;14477;51.038;4.588;2022-08-19T07:31:13;5.30;;;2.80;;
26908;SDS011;14477;51.038;4.588;2022-08-19T07:33:43;6.43;;;3.00;;
26908;SDS011;14477;51.038;4.588;2022-08-19T07:36:11;6.00;;;3.08;;
26908;SDS011;14477;51.038;4.588;2022-08-19T07:38:40;5.35;;;3.20;;
26908;SDS011;14477;51.038;4.588;2022-08-19T07:41:08;6.77;;;2.70;;
26908;SDS011;14477;51.038;4.588;2022-08-19T07:43:36;4.97;;;2.88;;
26908;SDS011;14477;51.038;4.588;2022-08-19T07:46:03;5.95;;;3.17;;
26908;SDS011;14477;51.038;4.588;2022-08-19T07:48:29;5.75;;;3.28;;
26908;SDS011;14477;51.038;4.588;2022-08-19T07:50:56;5.05;;;2.78;;
26908;SDS011;14477;51.038;4.588;2022-08-19T07:53:26;6.23;;;3.07;;
26908;SDS011;14477;51.038;4.588;2022-08-19T07:55:53;5.47;;;3.30;;
26908;SDS011;14477;51.038;4.588;2022-08-19T07:58:20;5.53;;;3.05;;
26908;SDS011;14477;51.038;4.588;2022-08-19T08:00:48;5.40;;;3.10;;
26908;SDS011;14477;51.038;4.588;2022-08-19T08:03:15;5.97;;;3.17;;
26908;SDS011;14477;51.038;4.588;2022-08-19T08:05:43;4.55;;;2.67;;
26908;SDS011;14477;51.038;4.588;2022-08-19T08:08:28;4.70;;;2.70;;
26908;SDS011;14477;51.038;4.588;2022-08-19T08:11:13;4.13;;;2.70;;
26908;SDS011;14477;51.038;4.588;2022-08-19T08:13:40;4.83;;;2.67;;
26908;SDS011;14477;51.038;4.588;2022-08-19T08:16:06;5.07;;;2.55;;
26908;SDS011;14477;51.038;4.588;2022-08-19T08:18:32;4.00;;;2.30;;
26908;SDS011;14477;51.038;4.588;2022-08-19T08:20:59;4.93;;;2.40;;
26908;SDS011;14477;51.038;4.588;2022-08-19T08:23:25;3.88;;;2.33;;
26908;SDS011;14477;51.038;4.588;2022-08-19T08:25:52;3.93;;;2.50;;
26908;SDS011;14477;51.038;4.588;2022-08-19T08:28:20;4.15;;;2.55;;
26908;SDS011;14477;51.038;4.588;2022-08-19T08:30:47;4.32;;;2.53;;
26908;SDS011;14477;51.038;4.588;2022-08-19T08:33:17;4.30;;;2.40;;
26908;SDS011;14477;51.038;4.588;2022-08-19T08:35:48;3.53;;;2.40;;
26908;SDS011;14477;51.038;4.588;2022-08-19T08:38:15;4.07;;;2.17;;
26908;SDS011;14477;51.038;4.588;2022-08-19T08:40:53;3.65;;;2.30;;
26908;SDS011;14477;51.038;4.588;2022-08-19T08:43:38;3.10;;;2.20;;
26908;SDS011;14477;51.038;4.588;2022-08-19T08:46:10;2.95;;;2.15;;
26908;SDS011;14477;51.038;4.588;2022-08-19T08:51:20;3.10;;;1.90;;
26908;SDS011;14477;51.038;4.588;2022-08-19T08:53:49;2.63;;;1.83;;
26908;SDS011;14477;51.038;4.588;2022-08-19T08:56:18;3.70;;;1.80;;
26908;SDS011;14477;51.038;4.588;2022-08-19T09:01:21;2.78;;;1.80;;
26908;SDS011;14477;51.038;4.588;2022-08-19T09:03:47;3.30;;;1.80;;
26908;SDS011;14477;51.038;4.588;2022-08-19T09:09:13;3.38;;;1.90;;
26908;SDS011;14477;51.038;4.588;2022-08-19T09:16:57;2.30;;;1.50;;
26908;SDS011;14477;51.038;4.588;2022-08-19T09:19:24;3.05;;;1.77;;
26908;SDS011;14477;51.038;4.588;2022-08-19T09:21:50;2.40;;;1.58;;
26908;SDS011;14477;51.038;4.588;2022-08-19T09:24:16;3.25;;;1.88;;
26908;SDS011;14477;51.038;4.588;2022-08-19T09:26:42;3.20;;;1.77;;
26908;SDS011;14477;51.038;4.588;2022-08-19T09:29:09;3.47;;;1.80;;
26908;SDS011;14477;51.038;4.588;2022-08-19T09:31:35;2.20;;;1.63;;
26908;SDS011;14477;51.038;4.588;2022-08-19T09:34:02;3.17;;;2.00;;
26908;SDS011;14477;51.038;4.588;2022-08-19T09:36:29;3.60;;;2.15;;
26908;SDS011;14477;51.038;4.588;2022-08-19T09:38:58;4.10;;;1.97;;
26908;SDS011;14477;51.038;4.588;2022-08-19T09:41:25;3.40;;;1.95;;
26908;SDS011;14477;51.038;4.588;2022-08-19T09:43:52;3.78;;;2.10;;
26908;SDS011;14477;51.038;4.588;2022-08-19T09:46:20;3.22;;;2.00;;
26908;SDS011;14477;51.038;4.588;2022-08-19T09:48:49;2.80;;;2.00;;
26908;SDS011;14477;51.038;4.588;2022-08-19T09:51:17;2.50;;;1.60;;
26908;SDS011;14477;51.038;4.588;2022-08-19T09:53:46;2.72;;;1.80;;
26908;SDS011;14477;51.038;4.588;2022-08-19T09:56:15;3.33;;;1.88;;
26908;SDS011;14477;51.038;4.588;2022-08-19T09:58:43;3.53;;;1.83;;
26908;SDS011;14477;51.038;4.588;2022-08-19T10:01:08;3.30;;;2.03;;
26908;SDS011;14477;51.038;4.588;2022-08-19T10:03:40;4.68;;;2.20;;
26908;SDS011;14477;51.038;4.588;2022-08-19T10:06:06;3.47;;;2.07;;
26908;SDS011;14477;51.038;4.588;2022-08-19T10:08:32;4.00;;;1.90;;
26908;SDS011;14477;51.038;4.588;2022-08-19T10:11:00;2.70;;;1.98;;
26908;SDS011;14477;51.038;4.588;2022-08-19T10:13:28;3.93;;;2.20;;
26908;SDS011;14477;51.038;4.588;2022-08-19T10:15:56;3.15;;;2.00;;
26908;SDS011;14477;51.038;4.588;2022-08-19T10:18:28;3.17;;;1.90;;
26908;SDS011;14477;51.038;4.588;2022-08-19T10:21:02;3.15;;;1.88;;
26908;SDS011;14477;51.038;4.588;2022-08-19T10:23:34;3.80;;;2.20;;
26908;SDS011;14477;51.038;4.588;2022-08-19T10:26:02;4.00;;;2.13;;
26908;SDS011;14477;51.038;4.588;2022-08-19T10:28:31;5.00;;;2.38;;
26908;SDS011;14477;51.038;4.588;2022-08-19T10:31:15;5.18;;;2.15;;
26908;SDS011;14477;51.038;4.588;2022-08-19T10:33:44;3.88;;;2.20;;
26908;SDS011;14477;51.038;4.588;2022-08-19T10:36:13;3.25;;;2.13;;
26908;SDS011;14477;51.038;4.588;2022-08-19T10:38:43;3.30;;;2.13;;
26908;SDS011;14477;51.038;4.588;2022-08-19T10:41:17;4.18;;;2.30;;
26908;SDS011;14477;51.038;4.588;2022-08-19T10:43:45;3.33;;;2.15;;
26908;SDS011;14477;51.038;4.588;2022-08-19T10:46:12;3.63;;;2.08;;
26908;SDS011;14477;51.038;4.588;2022-08-19T10:48:40;3.25;;;2.45;;
26908;SDS011;14477;51.038;4.588;2022-08-19T10:51:06;3.43;;;2.17;;
26908;SDS011;14477;51.038;4.588;2022-08-19T10:53:51;3.15;;;2.30;;
26908;SDS011;14477;51.038;4.588;2022-08-19T10:56:17;3.42;;;2.42;;
26908;SDS011;14477;51.038;4.588;2022-08-19T10:59:02;4.32;;;2.20;;
26908;SDS011;14477;51.038;4.588;2022-08-19T11:01:30;2.87;;;2.03;;
26908;SDS011;14477;51.038;4.588;2022-08-19T11:03:59;3.53;;;2.10;;
26908;SDS011;14477;51.038;4.588;2022-08-19T11:06:28;3.38;;;2.08;;
26908;SDS011;14477;51.038;4.588;2022-08-19T11:08:55;3.58;;;1.70;;
26908;SDS011;14477;51.038;4.588;2022-08-19T11:11:21;2.58;;;1.90;;
26908;SDS011;14477;51.038;4.588;2022-08-19T11:13:48;2.73;;;1.70;;
26908;SDS011;14477;51.038;4.588;2022-08-19T11:16:25;4.15;;;1.83;;
26908;SDS011;14477;51.038;4.588;2022-08-19T11:18:56;2.53;;;1.65;;
26908;SDS011;14477;51.038;4.588;2022-08-19T11:21:28;2.83;;;1.65;;
26908;SDS011;14477;51.038;4.588;2022-08-19T11:24:09;2.70;;;1.70;;
26908;SDS011;14477;51.038;4.588;2022-08-19T11:26:37;2.97;;;1.70;;
26908;SDS011;14477;51.038;4.588;2022-08-19T11:29:04;3.50;;;1.70;;
26908;SDS011;14477;51.038;4.588;2022-08-19T11:31:33;2.50;;;1.65;;
26908;SDS011;14477;51.038;4.588;2022-08-19T11:34:01;2.33;;;1.52;;
26908;SDS011;14477;51.038;4.588;2022-08-19T11:36:29;2.30;;;1.65;;
26908;SDS011;14477;51.038;4.588;2022-08-19T11:38:57;3.43;;;1.90;;
26908;SDS011;14477;51.038;4.588;2022-08-19T11:41:23;2.53;;;1.70;;
26908;SDS011;14477;51.038;4.588;2022-08-19T11:43:50;3.25;;;1.73;;
26908;SDS011;14477;51.038;4.588;2022-08-19T11:46:19;2.70;;;1.50;;
26908;SDS011;14477;51.038;4.588;2022-08-19T11:48:45;2.58;;;1.67;;
26908;SDS011;14477;51.038;4.588;2022-08-19T11:51:15;3.00;;;2.00;;
26908;SDS011;14477;51.038;4.588;2022-08-19T11:53:43;2.35;;;1.83;;
26908;SDS011;14477;51.038;4.588;2022-08-19T11:56:10;2.58;;;1.80;;
26908;SDS011;14477;51.038;4.588;2022-08-19T11:58:37;2.63;;;1.60;;
26908;SDS011;14477;51.038;4.588;2022-08-19T12:01:09;2.17;;;1.60;;
26908;SDS011;14477;51.038;4.588;2022-08-19T12:03:43;2.63;;;1.80;;
26908;SDS011;14477;51.038;4.588;2022-08-19T12:06:17;3.03;;;1.83;;
26908;SDS011;14477;51.038;4.588;2022-08-19T12:08:54;2.80;;;1.65;;
26908;SDS011;14477;51.038;4.588;2022-08-19T12:11:20;3.33;;;1.70;;
26908;SDS011;14477;51.038;4.588;2022-08-19T12:13:47;2.20;;;1.40;;
26908;SDS011;14477;51.038;4.588;2022-08-19T12:16:17;1.92;;;1.60;;
26908;SDS011;14477;51.038;4.588;2022-08-19T12:18:44;2.50;;;1.70;;
26908;SDS011;14477;51.038;4.588;2022-08-19T12:21:18;2.27;;;1.50;;
26908;SDS011;14477;51.038;4.588;2022-08-19T12:23:46;1.92;;;1.50;;
26908;SDS011;14477;51.038;4.588;2022-08-19T12:26:13;1.90;;;1.50;;
26908;SDS011;14477;51.038;4.588;2022-08-19T12:28:39;2.58;;;1.40;;
26908;SDS011;14477;51.038;4.588;2022-08-19T12:31:06;1.73;;;1.63;;
26908;SDS011;14477;51.038;4.588;2022-08-19T12:33:32;1.77;;;1.40;;
26908;SDS011;14477;51.038;4.588;2022-08-19T12:36:03;1.60;;;1.23;;
26908;SDS011;14477;51.038;4.588;2022-08-19T12:38:30;1.25;;;1.15;;
26908;SDS011;14477;51.038;4.588;2022-08-19T12:40:57;1.10;;;1.00;;
26908;SDS011;14477;51.038;4.588;2022-08-19T12:43:23;1.33;;;1.10;;
26908;SDS011;14477;51.038;4.588;2022-08-19T12:45:49;1.38;;;1.10;;
26908;SDS011;14477;51.038;4.588;2022-08-19T12:48:15;1.80;;;1.30;;
26908;SDS011;14477;51.038;4.588;2022-08-19T12:50:42;2.03;;;1.38;;
26908;SDS011;14477;51.038;4.588;2022-08-19T12:53:12;1.63;;;1.30;;
26908;SDS011;14477;51.038;4.588;2022-08-19T12:55:38;1.50;;;1.30;;
26908;SDS011;14477;51.038;4.588;2022-08-19T12:58:04;2.13;;;1.67;;
26908;SDS011;14477;51.038;4.588;2022-08-19T13:00:30;2.30;;;1.67;;
26908;SDS011;14477;51.038;4.588;2022-08-19T13:02:57;2.20;;;1.60;;
26908;SDS011;14477;51.038;4.588;2022-08-19T13:05:26;2.70;;;1.70;;
26908;SDS011;14477;51.038;4.588;2022-08-19T13:07:55;2.05;;;1.70;;
26908;SDS011;14477;51.038;4.588;2022-08-19T13:10:24;2.38;;;1.77;;
26908;SDS011;14477;51.038;4.588;2022-08-19T13:12:55;4.23;;;1.70;;
26908;SDS011;14477;51.038;4.588;2022-08-19T13:15:22;3.33;;;1.70;;
26908;SDS011;14477;51.038;4.588;2022-08-19T13:17:48;2.53;;;1.75;;
26908;SDS011;14477;51.038;4.588;2022-08-19T13:20:16;2.60;;;1.80;;
26908;SDS011;14477;51.038;4.588;2022-08-19T13:22:44;2.90;;;1.80;;
26908;SDS011;14477;51.038;4.588;2022-08-19T13:25:11;2.87;;;1.90;;
26908;SDS011;14477;51.038;4.588;2022-08-19T13:27:38;2.78;;;1.90;;
26908;SDS011;14477;51.038;4.588;2022-08-19T13:30:05;2.42;;;2.03;;
26908;SDS011;14477;51.038;4.588;2022-08-19T13:32:52;3.10;;;2.33;;
26908;SDS011;14477;51.038;4.588;2022-08-19T13:35:36;2.88;;;2.03;;
26908;SDS011;14477;51.038;4.588;2022-08-19T13:38:03;2.80;;;2.07;;
26908;SDS011;14477;51.038;4.588;2022-08-19T13:40:30;2.80;;;2.20;;
26908;SDS011;14477;51.038;4.588;2022-08-19T13:42:59;2.35;;;2.15;;
26908;SDS011;14477;51.038;4.588;2022-08-19T13:45:26;2.50;;;2.25;;
26908;SDS011;14477;51.038;4.588;2022-08-19T13:47:54;2.85;;;2.10;;
26908;SDS011;14477;51.038;4.588;2022-08-19T13:50:25;1.90;;;1.80;;
26908;SDS011;14477;51.038;4.588;2022-08-19T13:52:53;3.22;;;2.50;;
26908;SDS011;14477;51.038;4.588;2022-08-19T13:55:20;2.50;;;1.88;;
26908;SDS011;14477;51.038;4.588;2022-08-19T13:57:49;2.17;;;1.92;;
26908;SDS011;14477;51.038;4.588;2022-08-19T14:00:20;2.55;;;1.70;;
26908;SDS011;14477;51.038;4.588;2022-08-19T14:02:47;2.50;;;1.50;;
26908;SDS011;14477;51.038;4.588;2022-08-19T14:05:16;1.42;;;1.33;;
26908;SDS011;14477;51.038;4.588;2022-08-19T14:07:43;1.63;;;1.27;;
26908;SDS011;14477;51.038;4.588;2022-08-19T14:10:10;1.77;;;1.55;;
26908;SDS011;14477;51.038;4.588;2022-08-19T14:12:37;2.55;;;1.50;;
26908;SDS011;14477;51.038;4.588;2022-08-19T14:15:04;1.53;;;1.43;;
26908;SDS011;14477;51.038;4.588;2022-08-19T14:17:32;1.30;;;1.20;;
26908;SDS011;14477;51.038;4.588;2022-08-19T14:20:00;2.92;;;1.63;;
26908;SDS011;14477;51.038;4.588;2022-08-19T14:22:32;1.50;;;1.40;;
26908;SDS011;14477;51.038;4.588;2022-08-19T14:24:58;1.40;;;1.30;;
26908;SDS011;14477;51.038;4.588;2022-08-19T14:27:24;2.00;;;1.10;;
26908;SDS011;14477;51.038;4.588;2022-08-19T14:29:51;1.35;;;1.25;;
26908;SDS011;14477;51.038;4.588;2022-08-19T14:32:18;1.60;;;1.50;;
26908;SDS011;14477;51.038;4.588;2022-08-19T14:34:44;2.00;;;1.40;;
26908;SDS011;14477;51.038;4.588;2022-08-19T14:37:12;1.20;;;1.10;;
26908;SDS011;14477;51.038;4.588;2022-08-19T14:39:42;1.10;;;1.00;;
26908;SDS011;14477;51.038;4.588;2022-08-19T14:42:10;1.20;;;1.10;;
26908;SDS011;14477;51.038;4.588;2022-08-19T14:44:35;1.73;;;1.20;;
26908;SDS011;14477;51.038;4.588;2022-08-19T14:47:02;1.02;;;0.93;;
26908;SDS011;14477;51.038;4.588;2022-08-19T14:49:28;1.10;;;1.00;;
26908;SDS011;14477;51.038;4.588;2022-08-19T14:51:54;1.17;;;1.00;;
26908;SDS011;14477;51.038;4.588;2022-08-19T14:54:20;1.15;;;0.90;;
26908;SDS011;14477;51.038;4.588;2022-08-19T14:56:46;0.80;;;0.80;;
26908;SDS011;14477;51.038;4.588;2022-08-19T14:59:13;1.60;;;0.93;;
26908;SDS011;14477;51.038;4.588;2022-08-19T15:01:39;1.20;;;0.90;;
26908;SDS011;14477;51.038;4.588;2022-08-19T15:04:05;1.40;;;1.30;;
26908;SDS011;14477;51.038;4.588;2022-08-19T15:06:31;0.85;;;0.80;;
26908;SDS011;14477;51.038;4.588;2022-08-19T15:08:57;0.80;;;0.80;;
26908;SDS011;14477;51.038;4.588;2022-08-19T15:11:23;0.60;;;0.60;;